sensor_id;sensor_type;location;lat;lon;timestamp;temperature;humidity
25346;DHT22;13300;51.032;3.710;2023-07-31T00:00:41;17.60;99.90
25346;DHT22;13300;51.032;3.710;2023-07-31T00:03:07;17.60;99.90
25346;DHT22;13300;51.032;3.710;2023-07-31T00:05:32;17.50;99.90
25346;DHT22;13300;51.032;3.710;2023-07-31T00:07:58;17.50;99.90
25346;DHT22;13300;51.032;3.710;2023-07-31T00:10:24;17.50;99.90
25346;DHT22;13300;51.032;3.710;2023-07-31T00:12:50;17.60;99.90
25346;DHT22;13300;51.032;3.710;2023-07-31T00:15:15;17.60;99.90
25346;DHT22;13300;51.032;3.710;2023-07-31T00:17:41;17.60;99.90
25346;DHT22;13300;51.032;3.710;2023-07-31T00:20:07;17.50;99.90
25346;DHT22;13300;51.032;3.710;2023-07-31T00:22:33;17.60;99.90
25346;DHT22;13300;51.032;3.710;2023-07-31T00:24:58;17.60;99.90
25346;DHT22;13300;51.032;3.710;2023-07-31T00:27:25;17.60;99.90
25346;DHT22;13300;51.032;3.710;2023-07-31T00:29:50;17.60;99.90
25346;DHT22;13300;51.032;3.710;2023-07-31T00:32:16;17.60;99.90
25346;DHT22;13300;51.032;3.710;2023-07-31T00:34:42;17.70;99.90
25346;DHT22;13300;51.032;3.710;2023-07-31T00:37:07;17.70;99.90
25346;DHT22;13300;51.032;3.710;2023-07-31T00:39:34;17.60;99.90
25346;DHT22;13300;51.032;3.710;2023-07-31T00:42:00;17.60;99.90
25346;DHT22;13300;51.032;3.710;2023-07-31T00:44:26;17.60;99.90
25346;DHT22;13300;51.032;3.710;2023-07-31T00:46:51;17.60;99.90
25346;DHT22;13300;51.032;3.710;2023-07-31T00:49:18;17.60;99.90
25346;DHT22;13300;51.032;3.710;2023-07-31T00:51:43;17.60;99.90
25346;DHT22;13300;51.032;3.710;2023-07-31T00:54:09;17.70;99.90
25346;DHT22;13300;51.032;3.710;2023-07-31T00:56:36;17.70;99.90
25346;DHT22;13300;51.032;3.710;2023-07-31T00:59:03;17.60;99.90
25346;DHT22;13300;51.032;3.710;2023-07-31T01:01:28;17.60;99.90
25346;DHT22;13300;51.032;3.710;2023-07-31T01:03:54;17.70;99.90
25346;DHT22;13300;51.032;3.710;2023-07-31T01:09:32;17.70;99.90
25346;DHT22;13300;51.032;3.710;2023-07-31T01:12:03;17.70;99.90
25346;DHT22;13300;51.032;3.710;2023-07-31T01:14:29;17.70;99.90
25346;DHT22;13300;51.032;3.710;2023-07-31T01:16:55;17.80;99.90
25346;DHT22;13300;51.032;3.710;2023-07-31T01:19:23;17.80;99.90
25346;DHT22;13300;51.032;3.710;2023-07-31T01:24:28;17.80;99.90
25346;DHT22;13300;51.032;3.710;2023-07-31T01:27:13;17.80;99.90
25346;DHT22;13300;51.032;3.710;2023-07-31T01:30:03;17.80;99.90
25346;DHT22;13300;51.032;3.710;2023-07-31T01:32:29;17.90;99.90
25346;DHT22;13300;51.032;3.710;2023-07-31T01:34:57;17.80;99.90
25346;DHT22;13300;51.032;3.710;2023-07-31T01:37:28;17.80;99.90
25346;DHT22;13300;51.032;3.710;2023-07-31T01:39:54;17.90;99.90
25346;DHT22;13300;51.032;3.710;2023-07-31T01:42:20;17.90;99.90
25346;DHT22;13300;51.032;3.710;2023-07-31T01:44:45;18.00;99.90
25346;DHT22;13300;51.032;3.710;2023-07-31T01:47:11;18.00;99.90
25346;DHT22;13300;51.032;3.710;2023-07-31T01:49:37;18.00;99.90
25346;DHT22;13300;51.032;3.710;2023-07-31T01:52:02;18.10;99.90
25346;DHT22;13300;51.032;3.710;2023-07-31T01:54:28;18.10;99.90
25346;DHT22;13300;51.032;3.710;2023-07-31T01:56:54;18.20;99.90
25346;DHT22;13300;51.032;3.710;2023-07-31T01:59:19;18.10;99.90
25346;DHT22;13300;51.032;3.710;2023-07-31T02:01:45;18.00;99.90
25346;DHT22;13300;51.032;3.710;2023-07-31T02:04:11;18.00;99.90
25346;DHT22;13300;51.032;3.710;2023-07-31T02:06:37;18.00;99.90
25346;DHT22;13300;51.032;3.710;2023-07-31T02:09:03;18.00;99.90
25346;DHT22;13300;51.032;3.710;2023-07-31T02:11:29;17.90;99.90
25346;DHT22;13300;51.032;3.710;2023-07-31T02:13:54;17.90;99.90
25346;DHT22;13300;51.032;3.710;2023-07-31T02:16:20;17.90;99.90
25346;DHT22;13300;51.032;3.710;2023-07-31T02:18:46;18.00;99.90
25346;DHT22;13300;51.032;3.710;2023-07-31T02:21:11;17.90;99.90
25346;DHT22;13300;51.032;3.710;2023-07-31T02:23:37;17.90;99.90
25346;DHT22;13300;51.032;3.710;2023-07-31T02:26:02;17.90;99.90
25346;DHT22;13300;51.032;3.710;2023-07-31T02:28:29;18.00;99.90
25346;DHT22;13300;51.032;3.710;2023-07-31T02:30:55;17.90;99.90
25346;DHT22;13300;51.032;3.710;2023-07-31T02:33:20;18.00;99.90
25346;DHT22;13300;51.032;3.710;2023-07-31T02:35:46;18.00;99.90
25346;DHT22;13300;51.032;3.710;2023-07-31T02:38:12;18.00;99.90
25346;DHT22;13300;51.032;3.710;2023-07-31T02:40:38;18.00;99.90
25346;DHT22;13300;51.032;3.710;2023-07-31T02:43:04;18.00;99.90
25346;DHT22;13300;51.032;3.710;2023-07-31T02:45:30;18.10;99.90
25346;DHT22;13300;51.032;3.710;2023-07-31T02:47:55;18.00;99.90
25346;DHT22;13300;51.032;3.710;2023-07-31T02:50:21;17.90;99.90
25346;DHT22;13300;51.032;3.710;2023-07-31T02:52:47;17.80;99.90
25346;DHT22;13300;51.032;3.710;2023-07-31T02:55:12;17.80;99.90
25346;DHT22;13300;51.032;3.710;2023-07-31T02:57:38;17.90;99.90
25346;DHT22;13300;51.032;3.710;2023-07-31T03:00:04;17.90;99.90
25346;DHT22;13300;51.032;3.710;2023-07-31T03:02:32;17.80;99.90
25346;DHT22;13300;51.032;3.710;2023-07-31T03:04:57;17.70;99.90
25346;DHT22;13300;51.032;3.710;2023-07-31T03:07:23;17.80;99.90
25346;DHT22;13300;51.032;3.710;2023-07-31T03:09:49;17.70;99.90
25346;DHT22;13300;51.032;3.710;2023-07-31T03:12:14;17.70;99.90
25346;DHT22;13300;51.032;3.710;2023-07-31T03:14:40;17.80;99.90
25346;DHT22;13300;51.032;3.710;2023-07-31T03:17:06;17.80;99.90
25346;DHT22;13300;51.032;3.710;2023-07-31T03:19:32;17.70;99.90
25346;DHT22;13300;51.032;3.710;2023-07-31T03:21:59;17.60;99.90
25346;DHT22;13300;51.032;3.710;2023-07-31T03:24:25;17.50;99.90
25346;DHT22;13300;51.032;3.710;2023-07-31T03:26:50;17.40;99.90
25346;DHT22;13300;51.032;3.710;2023-07-31T03:29:16;17.40;99.90
25346;DHT22;13300;51.032;3.710;2023-07-31T03:31:42;17.40;99.90
25346;DHT22;13300;51.032;3.710;2023-07-31T03:34:07;17.30;99.90
25346;DHT22;13300;51.032;3.710;2023-07-31T03:36:33;17.30;99.90
25346;DHT22;13300;51.032;3.710;2023-07-31T03:38:59;17.10;99.90
25346;DHT22;13300;51.032;3.710;2023-07-31T03:41:24;17.00;99.90
25346;DHT22;13300;51.032;3.710;2023-07-31T03:43:51;17.00;99.90
25346;DHT22;13300;51.032;3.710;2023-07-31T03:46:17;17.10;99.90
25346;DHT22;13300;51.032;3.710;2023-07-31T03:48:43;17.10;99.90
25346;DHT22;13300;51.032;3.710;2023-07-31T03:51:08;17.10;99.90
25346;DHT22;13300;51.032;3.710;2023-07-31T03:53:34;17.10;99.90
25346;DHT22;13300;51.032;3.710;2023-07-31T03:56:00;17.10;99.90
25346;DHT22;13300;51.032;3.710;2023-07-31T03:58:25;17.00;99.90
25346;DHT22;13300;51.032;3.710;2023-07-31T04:00:51;17.10;99.90
25346;DHT22;13300;51.032;3.710;2023-07-31T04:03:17;17.10;99.90
25346;DHT22;13300;51.032;3.710;2023-07-31T04:05:42;17.10;99.90
25346;DHT22;13300;51.032;3.710;2023-07-31T04:08:08;17.10;99.90
25346;DHT22;13300;51.032;3.710;2023-07-31T04:10:33;17.10;99.90
25346;DHT22;13300;51.032;3.710;2023-07-31T04:13:00;17.10;99.90
25346;DHT22;13300;51.032;3.710;2023-07-31T04:15:28;17.10;99.90
25346;DHT22;13300;51.032;3.710;2023-07-31T04:17:53;17.00;99.90
25346;DHT22;13300;51.032;3.710;2023-07-31T04:20:19;17.10;99.90
25346;DHT22;13300;51.032;3.710;2023-07-31T04:22:45;17.00;99.90
25346;DHT22;13300;51.032;3.710;2023-07-31T04:25:10;16.90;99.90
25346;DHT22;13300;51.032;3.710;2023-07-31T04:27:36;16.90;99.90
25346;DHT22;13300;51.032;3.710;2023-07-31T04:30:02;16.90;99.90
25346;DHT22;13300;51.032;3.710;2023-07-31T04:32:27;16.90;99.90
25346;DHT22;13300;51.032;3.710;2023-07-31T04:34:54;16.90;99.90
25346;DHT22;13300;51.032;3.710;2023-07-31T04:37:19;16.80;99.90
25346;DHT22;13300;51.032;3.710;2023-07-31T04:39:45;16.90;99.90
25346;DHT22;13300;51.032;3.710;2023-07-31T04:42:11;16.90;99.90
25346;DHT22;13300;51.032;3.710;2023-07-31T04:44:36;16.90;99.90
25346;DHT22;13300;51.032;3.710;2023-07-31T04:47:02;17.00;99.90
25346;DHT22;13300;51.032;3.710;2023-07-31T04:49:28;16.90;99.90
25346;DHT22;13300;51.032;3.710;2023-07-31T04:51:54;16.90;99.90
25346;DHT22;13300;51.032;3.710;2023-07-31T04:54:19;16.90;99.90
25346;DHT22;13300;51.032;3.710;2023-07-31T04:56:45;16.80;99.90
25346;DHT22;13300;51.032;3.710;2023-07-31T04:59:11;16.80;99.90
25346;DHT22;13300;51.032;3.710;2023-07-31T05:01:36;16.80;99.90
25346;DHT22;13300;51.032;3.710;2023-07-31T05:04:02;16.90;99.90
25346;DHT22;13300;51.032;3.710;2023-07-31T05:06:27;16.80;99.90
25346;DHT22;13300;51.032;3.710;2023-07-31T05:08:53;16.80;99.90
25346;DHT22;13300;51.032;3.710;2023-07-31T05:11:19;16.80;99.90
25346;DHT22;13300;51.032;3.710;2023-07-31T05:13:44;16.90;99.90
25346;DHT22;13300;51.032;3.710;2023-07-31T05:16:10;16.90;99.90
25346;DHT22;13300;51.032;3.710;2023-07-31T05:18:36;16.90;99.90
25346;DHT22;13300;51.032;3.710;2023-07-31T05:21:01;16.90;99.90
25346;DHT22;13300;51.032;3.710;2023-07-31T05:23:27;17.00;99.90
25346;DHT22;13300;51.032;3.710;2023-07-31T05:25:53;17.00;99.90
25346;DHT22;13300;51.032;3.710;2023-07-31T05:28:18;17.00;99.90
25346;DHT22;13300;51.032;3.710;2023-07-31T05:30:44;17.00;99.90
25346;DHT22;13300;51.032;3.710;2023-07-31T05:33:10;17.00;99.90
25346;DHT22;13300;51.032;3.710;2023-07-31T05:35:35;17.00;99.90
25346;DHT22;13300;51.032;3.710;2023-07-31T05:38:01;17.10;99.90
25346;DHT22;13300;51.032;3.710;2023-07-31T05:40:27;17.00;99.90
25346;DHT22;13300;51.032;3.710;2023-07-31T05:42:52;17.00;99.90
25346;DHT22;13300;51.032;3.710;2023-07-31T05:45:18;17.00;99.90
25346;DHT22;13300;51.032;3.710;2023-07-31T05:47:43;17.00;99.90
25346;DHT22;13300;51.032;3.710;2023-07-31T05:50:09;17.00;99.90
25346;DHT22;13300;51.032;3.710;2023-07-31T05:52:35;17.00;99.90
25346;DHT22;13300;51.032;3.710;2023-07-31T05:55:00;17.10;99.90
25346;DHT22;13300;51.032;3.710;2023-07-31T05:57:26;17.10;99.90
25346;DHT22;13300;51.032;3.710;2023-07-31T05:59:52;17.10;99.90
25346;DHT22;13300;51.032;3.710;2023-07-31T06:02:18;17.10;99.90
25346;DHT22;13300;51.032;3.710;2023-07-31T06:04:44;17.10;99.90
25346;DHT22;13300;51.032;3.710;2023-07-31T06:07:10;17.10;99.90
25346;DHT22;13300;51.032;3.710;2023-07-31T06:09:36;17.00;99.90
25346;DHT22;13300;51.032;3.710;2023-07-31T06:12:02;17.00;99.90
25346;DHT22;13300;51.032;3.710;2023-07-31T06:14:28;17.10;99.90
25346;DHT22;13300;51.032;3.710;2023-07-31T06:16:53;17.20;99.90
25346;DHT22;13300;51.032;3.710;2023-07-31T06:19:19;17.20;99.90
25346;DHT22;13300;51.032;3.710;2023-07-31T06:21:45;17.20;99.90
25346;DHT22;13300;51.032;3.710;2023-07-31T06:24:11;17.20;99.90
25346;DHT22;13300;51.032;3.710;2023-07-31T06:30:01;17.20;99.90
25346;DHT22;13300;51.032;3.710;2023-07-31T06:32:45;17.20;99.90
25346;DHT22;13300;51.032;3.710;2023-07-31T06:35:11;17.30;99.90
25346;DHT22;13300;51.032;3.710;2023-07-31T06:37:37;17.30;99.90
25346;DHT22;13300;51.032;3.710;2023-07-31T06:40:06;17.30;99.90
25346;DHT22;13300;51.032;3.710;2023-07-31T06:42:34;17.30;99.90
25346;DHT22;13300;51.032;3.710;2023-07-31T06:45:01;17.30;99.90
25346;DHT22;13300;51.032;3.710;2023-07-31T06:47:26;17.30;99.90
25346;DHT22;13300;51.032;3.710;2023-07-31T06:49:52;17.40;99.90
25346;DHT22;13300;51.032;3.710;2023-07-31T06:52:18;17.50;99.90
25346;DHT22;13300;51.032;3.710;2023-07-31T06:54:43;17.40;99.90
25346;DHT22;13300;51.032;3.710;2023-07-31T06:57:09;17.40;99.90
25346;DHT22;13300;51.032;3.710;2023-07-31T06:59:35;17.50;99.90
25346;DHT22;13300;51.032;3.710;2023-07-31T07:02:00;17.60;99.90
25346;DHT22;13300;51.032;3.710;2023-07-31T07:04:26;17.60;99.90
25346;DHT22;13300;51.032;3.710;2023-07-31T07:06:52;17.70;99.90
25346;DHT22;13300;51.032;3.710;2023-07-31T07:09:17;17.80;99.90
25346;DHT22;13300;51.032;3.710;2023-07-31T07:11:43;17.80;99.90
25346;DHT22;13300;51.032;3.710;2023-07-31T07:14:09;17.90;99.90
25346;DHT22;13300;51.032;3.710;2023-07-31T07:16:35;17.90;99.90
25346;DHT22;13300;51.032;3.710;2023-07-31T07:19:01;17.90;99.90
25346;DHT22;13300;51.032;3.710;2023-07-31T07:21:26;18.10;99.90
25346;DHT22;13300;51.032;3.710;2023-07-31T07:23:52;18.20;99.90
25346;DHT22;13300;51.032;3.710;2023-07-31T07:26:18;18.40;99.90
25346;DHT22;13300;51.032;3.710;2023-07-31T07:28:43;18.60;99.90
25346;DHT22;13300;51.032;3.710;2023-07-31T07:31:09;18.70;99.90
25346;DHT22;13300;51.032;3.710;2023-07-31T07:33:35;18.70;99.90
25346;DHT22;13300;51.032;3.710;2023-07-31T07:36:01;18.80;99.90
25346;DHT22;13300;51.032;3.710;2023-07-31T07:38:27;18.70;99.90
25346;DHT22;13300;51.032;3.710;2023-07-31T07:40:53;18.50;99.90
25346;DHT22;13300;51.032;3.710;2023-07-31T07:43:19;18.40;99.90
25346;DHT22;13300;51.032;3.710;2023-07-31T07:45:45;18.30;99.90
25346;DHT22;13300;51.032;3.710;2023-07-31T07:48:10;18.20;99.90
25346;DHT22;13300;51.032;3.710;2023-07-31T07:50:38;18.40;99.90
25346;DHT22;13300;51.032;3.710;2023-07-31T07:53:04;18.50;99.90
25346;DHT22;13300;51.032;3.710;2023-07-31T07:55:29;18.70;99.90
25346;DHT22;13300;51.032;3.710;2023-07-31T07:57:55;18.70;99.90
25346;DHT22;13300;51.032;3.710;2023-07-31T08:00:21;18.90;99.90
25346;DHT22;13300;51.032;3.710;2023-07-31T08:02:46;19.10;99.90
25346;DHT22;13300;51.032;3.710;2023-07-31T08:05:12;19.10;99.90
25346;DHT22;13300;51.032;3.710;2023-07-31T08:07:38;19.10;99.90
25346;DHT22;13300;51.032;3.710;2023-07-31T08:10:04;19.20;99.90
25346;DHT22;13300;51.032;3.710;2023-07-31T08:12:30;19.20;99.90
25346;DHT22;13300;51.032;3.710;2023-07-31T08:14:55;19.30;99.90
25346;DHT22;13300;51.032;3.710;2023-07-31T08:17:21;19.50;99.90
25346;DHT22;13300;51.032;3.710;2023-07-31T08:19:47;19.50;99.90
25346;DHT22;13300;51.032;3.710;2023-07-31T08:22:12;19.50;99.90
25346;DHT22;13300;51.032;3.710;2023-07-31T08:24:38;19.60;99.90
25346;DHT22;13300;51.032;3.710;2023-07-31T08:27:06;19.60;99.90
25346;DHT22;13300;51.032;3.710;2023-07-31T08:29:31;19.40;99.90
25346;DHT22;13300;51.032;3.710;2023-07-31T08:31:57;19.20;99.90
25346;DHT22;13300;51.032;3.710;2023-07-31T08:34:23;19.20;99.90
25346;DHT22;13300;51.032;3.710;2023-07-31T08:36:48;19.20;99.90
25346;DHT22;13300;51.032;3.710;2023-07-31T08:39:14;19.20;99.90
25346;DHT22;13300;51.032;3.710;2023-07-31T08:41:40;19.30;99.90
25346;DHT22;13300;51.032;3.710;2023-07-31T08:44:07;19.50;99.90
25346;DHT22;13300;51.032;3.710;2023-07-31T08:46:33;19.80;99.90
25346;DHT22;13300;51.032;3.710;2023-07-31T08:48:59;20.00;99.90
25346;DHT22;13300;51.032;3.710;2023-07-31T08:51:26;20.00;99.90
25346;DHT22;13300;51.032;3.710;2023-07-31T08:53:53;20.00;99.90
25346;DHT22;13300;51.032;3.710;2023-07-31T08:56:19;20.10;99.90
25346;DHT22;13300;51.032;3.710;2023-07-31T08:58:45;20.10;99.90
25346;DHT22;13300;51.032;3.710;2023-07-31T09:01:12;19.90;99.90
25346;DHT22;13300;51.032;3.710;2023-07-31T09:03:39;19.80;99.90
25346;DHT22;13300;51.032;3.710;2023-07-31T09:06:06;19.90;99.90
25346;DHT22;13300;51.032;3.710;2023-07-31T09:08:33;19.70;99.90
25346;DHT22;13300;51.032;3.710;2023-07-31T09:11:00;19.80;99.90
25346;DHT22;13300;51.032;3.710;2023-07-31T09:13:31;19.90;99.90
25346;DHT22;13300;51.032;3.710;2023-07-31T09:15:56;19.90;99.90
25346;DHT22;13300;51.032;3.710;2023-07-31T09:18:22;19.80;99.90
25346;DHT22;13300;51.032;3.710;2023-07-31T09:21:01;19.90;99.90
25346;DHT22;13300;51.032;3.710;2023-07-31T09:23:49;19.80;99.90
25346;DHT22;13300;51.032;3.710;2023-07-31T09:28:57;19.80;99.90
25346;DHT22;13300;51.032;3.710;2023-07-31T09:31:39;19.80;99.90
25346;DHT22;13300;51.032;3.710;2023-07-31T09:34:05;19.90;99.90
25346;DHT22;13300;51.032;3.710;2023-07-31T09:36:31;19.70;99.90
25346;DHT22;13300;51.032;3.710;2023-07-31T09:39:02;19.70;99.90
25346;DHT22;13300;51.032;3.710;2023-07-31T09:41:30;19.80;99.90
25346;DHT22;13300;51.032;3.710;2023-07-31T09:43:56;19.90;99.90
25346;DHT22;13300;51.032;3.710;2023-07-31T09:46:21;19.90;99.90
25346;DHT22;13300;51.032;3.710;2023-07-31T09:48:47;20.00;99.90
25346;DHT22;13300;51.032;3.710;2023-07-31T09:51:13;20.00;99.90
25346;DHT22;13300;51.032;3.710;2023-07-31T09:53:38;20.10;99.90
25346;DHT22;13300;51.032;3.710;2023-07-31T09:56:04;20.20;99.90
25346;DHT22;13300;51.032;3.710;2023-07-31T09:58:34;20.30;99.90
25346;DHT22;13300;51.032;3.710;2023-07-31T10:01:02;20.30;99.90
25346;DHT22;13300;51.032;3.710;2023-07-31T10:03:29;20.50;99.90
25346;DHT22;13300;51.032;3.710;2023-07-31T10:05:58;20.60;99.90
25346;DHT22;13300;51.032;3.710;2023-07-31T10:08:30;20.80;99.90
25346;DHT22;13300;51.032;3.710;2023-07-31T10:11:01;20.90;99.90
25346;DHT22;13300;51.032;3.710;2023-07-31T10:13:28;20.50;99.90
25346;DHT22;13300;51.032;3.710;2023-07-31T10:15:54;20.50;99.90
25346;DHT22;13300;51.032;3.710;2023-07-31T10:18:24;20.30;99.90
25346;DHT22;13300;51.032;3.710;2023-07-31T10:20:50;20.10;99.90
25346;DHT22;13300;51.032;3.710;2023-07-31T10:23:16;19.90;99.90
25346;DHT22;13300;51.032;3.710;2023-07-31T10:25:43;19.70;99.90
25346;DHT22;13300;51.032;3.710;2023-07-31T10:28:10;19.40;99.90
25346;DHT22;13300;51.032;3.710;2023-07-31T10:30:37;19.40;99.90
25346;DHT22;13300;51.032;3.710;2023-07-31T10:33:05;19.30;99.90
25346;DHT22;13300;51.032;3.710;2023-07-31T10:35:31;19.30;99.90
25346;DHT22;13300;51.032;3.710;2023-07-31T10:38:09;19.40;99.90
25346;DHT22;13300;51.032;3.710;2023-07-31T10:40:36;19.50;99.90
25346;DHT22;13300;51.032;3.710;2023-07-31T10:43:02;19.40;99.90
25346;DHT22;13300;51.032;3.710;2023-07-31T10:48:01;19.70;99.90
25346;DHT22;13300;51.032;3.710;2023-07-31T10:50:28;20.00;99.90
25346;DHT22;13300;51.032;3.710;2023-07-31T10:52:55;20.10;99.90
25346;DHT22;13300;51.032;3.710;2023-07-31T10:55:25;20.10;99.90
25346;DHT22;13300;51.032;3.710;2023-07-31T10:57:52;20.20;99.90
25346;DHT22;13300;51.032;3.710;2023-07-31T11:13:48;20.90;99.90
25346;DHT22;13300;51.032;3.710;2023-07-31T11:16:24;21.20;99.90
25346;DHT22;13300;51.032;3.710;2023-07-31T11:18:51;21.20;99.90
25346;DHT22;13300;51.032;3.710;2023-07-31T11:21:20;21.20;99.90
25346;DHT22;13300;51.032;3.710;2023-07-31T11:23:49;21.20;99.90
25346;DHT22;13300;51.032;3.710;2023-07-31T11:26:15;21.30;99.90
25346;DHT22;13300;51.032;3.710;2023-07-31T11:28:41;21.20;99.90
25346;DHT22;13300;51.032;3.710;2023-07-31T11:31:10;21.20;99.90
25346;DHT22;13300;51.032;3.710;2023-07-31T11:33:36;21.20;99.90
25346;DHT22;13300;51.032;3.710;2023-07-31T11:36:02;21.20;99.90
25346;DHT22;13300;51.032;3.710;2023-07-31T11:38:30;21.20;99.90
25346;DHT22;13300;51.032;3.710;2023-07-31T11:40:58;21.30;99.90
25346;DHT22;13300;51.032;3.710;2023-07-31T11:43:25;21.30;99.90
25346;DHT22;13300;51.032;3.710;2023-07-31T11:45:55;21.40;99.90
25346;DHT22;13300;51.032;3.710;2023-07-31T11:48:29;21.40;99.90
25346;DHT22;13300;51.032;3.710;2023-07-31T11:51:03;21.50;99.90
25346;DHT22;13300;51.032;3.710;2023-07-31T11:56:18;21.40;99.90
25346;DHT22;13300;51.032;3.710;2023-07-31T11:58:47;21.30;99.90
25346;DHT22;13300;51.032;3.710;2023-07-31T12:01:19;21.30;99.90
25346;DHT22;13300;51.032;3.710;2023-07-31T12:03:46;21.10;99.90
25346;DHT22;13300;51.032;3.710;2023-07-31T12:06:12;20.90;99.90
25346;DHT22;13300;51.032;3.710;2023-07-31T12:08:38;21.10;99.90
25346;DHT22;13300;51.032;3.710;2023-07-31T12:11:06;21.10;99.90
25346;DHT22;13300;51.032;3.710;2023-07-31T12:13:33;21.10;99.90
25346;DHT22;13300;51.032;3.710;2023-07-31T12:16:00;21.00;99.90
25346;DHT22;13300;51.032;3.710;2023-07-31T12:18:30;21.00;99.90
25346;DHT22;13300;51.032;3.710;2023-07-31T12:21:00;20.90;99.90
25346;DHT22;13300;51.032;3.710;2023-07-31T12:23:31;20.80;99.90
25346;DHT22;13300;51.032;3.710;2023-07-31T12:26:11;20.80;99.90
25346;DHT22;13300;51.032;3.710;2023-07-31T12:28:41;20.50;99.90
25346;DHT22;13300;51.032;3.710;2023-07-31T12:31:09;20.20;99.90
25346;DHT22;13300;51.032;3.710;2023-07-31T12:33:36;19.80;99.90
25346;DHT22;13300;51.032;3.710;2023-07-31T12:36:03;19.70;99.90
25346;DHT22;13300;51.032;3.710;2023-07-31T12:38:30;19.50;99.90
25346;DHT22;13300;51.032;3.710;2023-07-31T12:40:56;19.40;99.90
25346;DHT22;13300;51.032;3.710;2023-07-31T12:43:21;19.40;99.90
25346;DHT22;13300;51.032;3.710;2023-07-31T12:45:47;19.30;99.90
25346;DHT22;13300;51.032;3.710;2023-07-31T12:48:13;19.20;99.90
25346;DHT22;13300;51.032;3.710;2023-07-31T12:50:39;19.00;99.90
25346;DHT22;13300;51.032;3.710;2023-07-31T12:53:05;18.90;99.90
25346;DHT22;13300;51.032;3.710;2023-07-31T12:55:32;18.90;99.90
25346;DHT22;13300;51.032;3.710;2023-07-31T12:58:01;18.90;99.90
25346;DHT22;13300;51.032;3.710;2023-07-31T13:00:27;18.80;99.90
25346;DHT22;13300;51.032;3.710;2023-07-31T13:02:52;18.80;99.90
25346;DHT22;13300;51.032;3.710;2023-07-31T13:05:18;18.60;99.90
25346;DHT22;13300;51.032;3.710;2023-07-31T13:07:46;18.60;99.90
25346;DHT22;13300;51.032;3.710;2023-07-31T13:10:11;18.60;99.90
25346;DHT22;13300;51.032;3.710;2023-07-31T13:12:37;18.50;99.90
25346;DHT22;13300;51.032;3.710;2023-07-31T13:15:04;18.50;99.90
25346;DHT22;13300;51.032;3.710;2023-07-31T13:17:30;18.60;99.90
25346;DHT22;13300;51.032;3.710;2023-07-31T13:19:56;18.50;99.90
25346;DHT22;13300;51.032;3.710;2023-07-31T13:22:22;18.40;99.90
25346;DHT22;13300;51.032;3.710;2023-07-31T13:24:47;18.30;99.90
25346;DHT22;13300;51.032;3.710;2023-07-31T13:27:13;18.30;99.90
25346;DHT22;13300;51.032;3.710;2023-07-31T13:29:42;18.30;99.90
25346;DHT22;13300;51.032;3.710;2023-07-31T13:32:08;18.20;99.90
25346;DHT22;13300;51.032;3.710;2023-07-31T13:34:33;18.20;99.90
25346;DHT22;13300;51.032;3.710;2023-07-31T13:36:59;18.10;99.90
25346;DHT22;13300;51.032;3.710;2023-07-31T13:39:25;18.10;99.90
25346;DHT22;13300;51.032;3.710;2023-07-31T13:41:50;18.10;99.90
25346;DHT22;13300;51.032;3.710;2023-07-31T13:44:16;18.10;99.90
25346;DHT22;13300;51.032;3.710;2023-07-31T13:46:41;18.00;99.90
25346;DHT22;13300;51.032;3.710;2023-07-31T13:49:07;18.00;99.90
25346;DHT22;13300;51.032;3.710;2023-07-31T13:51:33;18.00;99.90
25346;DHT22;13300;51.032;3.710;2023-07-31T13:53:58;18.10;99.90
25346;DHT22;13300;51.032;3.710;2023-07-31T13:56:24;18.10;99.90
25346;DHT22;13300;51.032;3.710;2023-07-31T13:58:50;18.10;99.90
25346;DHT22;13300;51.032;3.710;2023-07-31T14:01:16;18.20;99.90
25346;DHT22;13300;51.032;3.710;2023-07-31T14:03:41;18.10;99.90
25346;DHT22;13300;51.032;3.710;2023-07-31T14:06:07;18.00;99.90
25346;DHT22;13300;51.032;3.710;2023-07-31T14:08:32;18.10;99.90
25346;DHT22;13300;51.032;3.710;2023-07-31T14:10:58;18.10;99.90
25346;DHT22;13300;51.032;3.710;2023-07-31T14:13:24;18.20;99.90
25346;DHT22;13300;51.032;3.710;2023-07-31T14:15:49;18.20;99.90
25346;DHT22;13300;51.032;3.710;2023-07-31T14:18:15;18.20;99.90
25346;DHT22;13300;51.032;3.710;2023-07-31T14:20:41;18.30;99.90
25346;DHT22;13300;51.032;3.710;2023-07-31T14:23:06;18.30;99.90
25346;DHT22;13300;51.032;3.710;2023-07-31T14:25:32;18.20;99.90
25346;DHT22;13300;51.032;3.710;2023-07-31T14:27:58;18.20;99.90
25346;DHT22;13300;51.032;3.710;2023-07-31T14:30:24;18.20;99.90
25346;DHT22;13300;51.032;3.710;2023-07-31T14:32:49;18.30;99.90
25346;DHT22;13300;51.032;3.710;2023-07-31T14:35:15;18.30;99.90
25346;DHT22;13300;51.032;3.710;2023-07-31T14:37:44;18.30;99.90
25346;DHT22;13300;51.032;3.710;2023-07-31T14:40:11;18.20;99.90
25346;DHT22;13300;51.032;3.710;2023-07-31T14:42:38;18.20;99.90
25346;DHT22;13300;51.032;3.710;2023-07-31T14:45:05;18.10;99.90
25346;DHT22;13300;51.032;3.710;2023-07-31T14:47:31;18.20;99.90
25346;DHT22;13300;51.032;3.710;2023-07-31T14:50:09;18.20;99.90
25346;DHT22;13300;51.032;3.710;2023-07-31T14:52:37;18.30;99.90
25346;DHT22;13300;51.032;3.710;2023-07-31T14:55:03;18.20;99.90
25346;DHT22;13300;51.032;3.710;2023-07-31T14:57:29;18.20;99.90
25346;DHT22;13300;51.032;3.710;2023-07-31T14:59:55;18.20;99.90
25346;DHT22;13300;51.032;3.710;2023-07-31T15:02:20;18.10;99.90
25346;DHT22;13300;51.032;3.710;2023-07-31T15:04:46;18.20;99.90
25346;DHT22;13300;51.032;3.710;2023-07-31T15:07:12;18.10;99.90
25346;DHT22;13300;51.032;3.710;2023-07-31T15:09:39;18.20;99.90
25346;DHT22;13300;51.032;3.710;2023-07-31T15:12:05;18.20;99.90
25346;DHT22;13300;51.032;3.710;2023-07-31T15:14:31;18.10;99.90
25346;DHT22;13300;51.032;3.710;2023-07-31T15:16:57;18.10;99.90
25346;DHT22;13300;51.032;3.710;2023-07-31T15:19:23;18.20;99.90
25346;DHT22;13300;51.032;3.710;2023-07-31T15:21:49;18.10;99.90
25346;DHT22;13300;51.032;3.710;2023-07-31T15:24:15;18.10;99.90
25346;DHT22;13300;51.032;3.710;2023-07-31T15:26:41;18.10;99.90
25346;DHT22;13300;51.032;3.710;2023-07-31T15:29:08;18.20;99.90
25346;DHT22;13300;51.032;3.710;2023-07-31T15:31:41;18.20;99.90
25346;DHT22;13300;51.032;3.710;2023-07-31T15:34:07;18.10;99.90
25346;DHT22;13300;51.032;3.710;2023-07-31T15:36:33;18.10;99.90
25346;DHT22;13300;51.032;3.710;2023-07-31T15:38:59;18.20;99.90
25346;DHT22;13300;51.032;3.710;2023-07-31T15:41:24;18.20;99.90
25346;DHT22;13300;51.032;3.710;2023-07-31T15:43:51;18.20;99.90
25346;DHT22;13300;51.032;3.710;2023-07-31T15:46:17;18.20;99.90
25346;DHT22;13300;51.032;3.710;2023-07-31T15:48:44;18.20;99.90
25346;DHT22;13300;51.032;3.710;2023-07-31T15:51:11;18.20;99.90
25346;DHT22;13300;51.032;3.710;2023-07-31T15:53:37;18.20;99.90
25346;DHT22;13300;51.032;3.710;2023-07-31T15:56:03;18.20;99.90